createdAt,value
2018-06-24T00:01:52.900Z,85.60
2018-06-24T00:04:20.961Z,85.90
2018-06-24T00:06:48.992Z,86.10
2018-06-24T00:09:17.092Z,86.50
2018-06-24T00:11:45.136Z,86.40
2018-06-24T00:14:13.217Z,86.60
2018-06-24T00:16:41.273Z,86.50
2018-06-24T00:19:09.516Z,86.60
2018-06-24T00:21:37.587Z,86.90
2018-06-24T00:24:05.613Z,87.00
2018-06-24T00:26:33.669Z,87.10
2018-06-24T00:29:01.776Z,87.50
2018-06-24T00:31:29.842Z,87.60
2018-06-24T00:33:57.856Z,87.70
2018-06-24T00:36:25.929Z,87.90
2018-06-24T00:38:53.965Z,88.10
2018-06-24T00:41:21.988Z,88.20
2018-06-24T00:43:50.094Z,88.30
2018-06-24T00:46:18.130Z,88.30
2018-06-24T00:48:46.164Z,88.30
2018-06-24T00:51:14.388Z,88.50
2018-06-24T00:53:42.466Z,88.50
2018-06-24T00:56:10.500Z,88.40
2018-06-24T00:58:38.536Z,88.30
2018-06-24T01:01:06.614Z,88.60
2018-06-24T01:03:34.676Z,88.60
2018-06-24T01:06:02.749Z,88.60
2018-06-24T01:08:30.828Z,89.00
2018-06-24T01:10:58.875Z,88.90
2018-06-24T01:13:26.890Z,88.60
2018-06-24T01:15:54.934Z,88.70
2018-06-24T01:18:23.004Z,88.70
2018-06-24T01:20:51.112Z,88.20
2018-06-24T01:23:19.336Z,88.40
2018-06-24T01:25:47.377Z,88.00
2018-06-24T01:28:16.048Z,88.10
2018-06-24T01:30:44.110Z,88.00
2018-06-24T01:33:12.148Z,87.90
2018-06-24T01:35:40.217Z,87.70
2018-06-24T01:38:08.281Z,87.90
2018-06-24T01:40:36.313Z,87.80
2018-06-24T01:43:04.332Z,87.70
2018-06-24T01:45:32.614Z,87.80
2018-06-24T01:48:00.656Z,87.70
2018-06-24T01:50:28.697Z,87.70
2018-06-24T01:52:56.757Z,87.60
2018-06-24T01:55:24.825Z,87.50
2018-06-24T01:57:52.934Z,87.60
2018-06-24T02:00:20.957Z,87.70
2018-06-24T02:02:48.984Z,87.80
2018-06-24T02:05:17.061Z,87.80
2018-06-24T02:07:45.153Z,87.60
2018-06-24T02:10:13.218Z,87.60
2018-06-24T02:12:41.245Z,87.60
2018-06-24T02:15:09.297Z,87.60
2018-06-24T02:17:37.345Z,87.60
2018-06-24T02:20:05.427Z,87.70
2018-06-24T02:22:33.469Z,87.50
2018-06-24T02:25:01.505Z,87.60
2018-06-24T02:27:29.590Z,87.40
2018-06-24T02:29:57.653Z,87.50
2018-06-24T02:32:25.681Z,87.50
2018-06-24T02:34:53.708Z,87.50
2018-06-24T02:37:21.764Z,87.60
2018-06-24T02:39:49.784Z,87.60
2018-06-24T02:42:17.811Z,87.20
2018-06-24T02:44:45.897Z,87.30
2018-06-24T02:47:13.946Z,87.10
2018-06-24T02:49:41.985Z,87.30
2018-06-24T02:52:10.141Z,87.10
2018-06-24T02:54:38.230Z,87.40
2018-06-24T02:57:06.302Z,87.20
2018-06-24T02:59:34.333Z,87.30
2018-06-24T03:02:02.411Z,87.40
2018-06-24T03:04:30.461Z,87.40
2018-06-24T03:06:58.495Z,87.40
2018-06-24T03:09:26.537Z,87.40
2018-06-24T03:11:54.637Z,87.20
2018-06-24T03:14:22.669Z,87.30
2018-06-24T03:16:50.705Z,87.20
2018-06-24T03:19:18.759Z,87.30
2018-06-24T03:21:46.785Z,87.60
2018-06-24T03:24:14.845Z,88.60
2018-06-24T03:26:42.927Z,89.00
2018-06-24T03:31:38.824Z,89.30
2018-06-24T03:34:06.949Z,89.60
2018-06-24T03:36:35.010Z,90.00
2018-06-24T03:39:03.161Z,89.70
2018-06-24T03:41:31.209Z,89.90
2018-06-24T03:43:59.260Z,90.00
2018-06-24T03:46:27.328Z,90.20
2018-06-24T03:48:55.367Z,89.90
2018-06-24T03:51:23.410Z,90.50
2018-06-24T03:53:51.460Z,90.30
2018-06-24T03:56:19.508Z,90.20
2018-06-24T03:58:47.541Z,90.30
2018-06-24T04:01:15.597Z,90.20
2018-06-24T04:03:43.657Z,90.30
2018-06-24T04:06:12.205Z,90.40
2018-06-24T04:08:40.251Z,90.30
2018-06-24T04:11:08.313Z,90.10
2018-06-24T04:13:36.365Z,90.10
2018-06-24T04:16:07.205Z,90.20
2018-06-24T04:18:41.098Z,90.50
2018-06-24T04:21:10.158Z,90.20
2018-06-24T04:23:38.182Z,90.30
2018-06-24T04:26:06.854Z,90.30
2018-06-24T04:28:34.949Z,90.30
2018-06-24T04:31:03.053Z,90.20
2018-06-24T04:33:31.206Z,90.10
2018-06-24T04:35:59.262Z,90.20
2018-06-24T04:38:27.407Z,90.00
2018-06-24T04:40:55.469Z,90.00
2018-06-24T04:43:23.517Z,89.70
2018-06-24T04:45:51.574Z,89.70
2018-06-24T04:48:19.641Z,89.60
2018-06-24T04:50:47.704Z,89.50
2018-06-24T04:53:15.737Z,89.00
2018-06-24T04:55:43.796Z,88.90
2018-06-24T04:58:11.812Z,88.80
2018-06-24T05:00:39.846Z,88.70
2018-06-24T05:03:07.937Z,88.60
2018-06-24T05:05:35.985Z,89.10
2018-06-24T05:08:04.149Z,89.40
2018-06-24T05:10:32.240Z,89.50
2018-06-24T05:13:00.301Z,89.40
2018-06-24T05:15:28.407Z,89.20
2018-06-24T05:17:56.469Z,89.30
2018-06-24T05:20:24.496Z,89.30
2018-06-24T05:22:52.585Z,89.20
2018-06-24T05:25:20.631Z,89.00
2018-06-24T05:27:48.676Z,89.20
2018-06-24T05:30:16.741Z,89.20
2018-06-24T05:32:44.878Z,89.60
2018-06-24T05:35:12.964Z,89.60
2018-06-24T05:37:41.000Z,89.30
2018-06-24T05:40:09.036Z,89.40
2018-06-24T05:42:37.080Z,89.40
2018-06-24T05:45:05.155Z,89.60
2018-06-24T05:47:33.218Z,88.90
2018-06-24T05:50:01.257Z,88.40
2018-06-24T05:52:29.304Z,88.70
2018-06-24T05:54:57.651Z,88.20
2018-06-24T05:59:54.252Z,88.10
2018-06-24T06:02:22.417Z,88.10
2018-06-24T06:04:50.506Z,88.40
2018-06-24T06:07:18.554Z,88.20
2018-06-24T06:09:46.724Z,88.00
2018-06-24T06:12:14.757Z,88.50
2018-06-24T06:14:42.941Z,88.40
2018-06-24T06:17:11.005Z,88.60
2018-06-24T06:19:39.065Z,87.90
2018-06-24T06:22:07.105Z,87.50
2018-06-24T06:24:35.149Z,87.60
2018-06-24T06:27:03.213Z,87.60
2018-06-24T06:29:31.346Z,88.00
2018-06-24T06:31:59.380Z,87.70
2018-06-24T06:34:27.468Z,86.90
2018-06-24T06:36:55.523Z,86.50
2018-06-24T06:39:23.560Z,86.70
2018-06-24T06:41:51.652Z,85.20
2018-06-24T06:44:19.733Z,84.90
2018-06-24T06:46:47.842Z,84.20
2018-06-24T06:49:16.065Z,84.00
2018-06-24T06:51:44.193Z,84.00
2018-06-24T06:54:12.249Z,84.40
2018-06-24T06:56:40.318Z,84.20
2018-06-24T06:59:08.338Z,84.30
2018-06-24T07:01:36.397Z,84.40
2018-06-24T07:04:04.426Z,84.30
2018-06-24T07:06:32.464Z,85.00
2018-06-24T07:09:00.565Z,85.30
2018-06-24T07:11:28.670Z,85.00
2018-06-24T07:13:56.777Z,84.90
2018-06-24T07:16:24.813Z,84.90
2018-06-24T07:18:52.897Z,85.20
2018-06-24T07:21:21.401Z,84.80
2018-06-24T07:23:49.442Z,84.80
2018-06-24T07:26:17.578Z,85.50
2018-06-24T07:31:13.640Z,85.90
2018-06-24T07:36:09.601Z,85.50
2018-06-24T07:38:37.668Z,86.00
2018-06-24T07:41:05.692Z,86.10
2018-06-24T07:43:33.813Z,87.10
2018-06-24T07:46:01.874Z,88.60
2018-06-24T07:48:29.918Z,89.50
2018-06-24T07:50:58.036Z,90.00
2018-06-24T07:53:26.076Z,90.30
2018-06-24T07:55:54.117Z,90.30
2018-06-24T07:58:22.180Z,90.30
2018-06-24T08:00:50.321Z,90.70
2018-06-24T08:03:18.368Z,90.60
2018-06-24T08:05:47.037Z,90.90
2018-06-24T08:08:15.080Z,91.20
2018-06-24T08:10:43.137Z,91.60
2018-06-24T08:13:11.230Z,91.60
2018-06-24T08:15:39.260Z,91.60
2018-06-24T08:18:07.297Z,91.40
2018-06-24T08:20:35.369Z,91.10
2018-06-24T08:23:03.445Z,90.70
2018-06-24T08:27:59.348Z,90.00
2018-06-24T08:30:27.516Z,89.70
2018-06-24T08:32:55.666Z,87.50
2018-06-24T08:35:23.886Z,86.80
2018-06-24T08:37:51.911Z,86.20
2018-06-24T08:40:19.981Z,86.60
2018-06-24T08:42:48.550Z,86.40
2018-06-24T08:45:16.589Z,87.00
2018-06-24T08:47:44.631Z,85.90
2018-06-24T08:50:12.674Z,86.70
2018-06-24T08:52:40.765Z,86.90
2018-06-24T08:55:08.817Z,87.10
2018-06-24T08:57:37.072Z,86.70
2018-06-24T09:00:05.102Z,87.80
2018-06-24T09:02:33.264Z,88.30
2018-06-24T09:05:01.466Z,89.90
2018-06-24T09:07:29.634Z,89.30
2018-06-24T09:09:57.685Z,90.20
2018-06-24T09:12:25.809Z,90.40
2018-06-24T09:14:53.821Z,90.40
2018-06-24T09:17:25.368Z,90.30
2018-06-24T09:19:53.414Z,90.10
2018-06-24T09:22:21.473Z,90.40
2018-06-24T09:24:49.517Z,90.40
2018-06-24T09:27:17.562Z,90.60
2018-06-24T09:29:45.619Z,90.80
2018-06-24T09:32:13.817Z,90.80
2018-06-24T09:34:41.852Z,90.90
2018-06-24T09:37:09.874Z,91.00
2018-06-24T09:39:37.936Z,91.10
2018-06-24T09:42:06.013Z,91.20
2018-06-24T09:44:34.060Z,91.20
2018-06-24T09:47:02.102Z,91.60
2018-06-24T09:49:30.148Z,91.70
2018-06-24T09:51:59.835Z,91.70
2018-06-24T09:54:35.697Z,91.20
2018-06-24T09:57:04.021Z,90.80
2018-06-24T09:59:32.240Z,91.00
2018-06-24T10:02:04.411Z,91.10
2018-06-24T10:04:33.176Z,90.70
2018-06-24T10:07:02.481Z,90.80
2018-06-24T10:11:58.661Z,90.70
2018-06-24T10:14:26.767Z,90.20
2018-06-24T10:16:54.911Z,90.70
2018-06-24T10:19:22.958Z,91.00
2018-06-24T10:21:51.001Z,91.40
2018-06-24T10:24:19.050Z,90.80
2018-06-24T10:26:47.068Z,90.50
2018-06-24T10:29:15.375Z,90.70
2018-06-24T10:31:43.493Z,90.40
2018-06-24T10:34:11.676Z,90.40
2018-06-24T10:36:39.728Z,89.90
2018-06-24T10:39:09.149Z,89.20
2018-06-24T10:41:38.541Z,89.30
2018-06-24T10:44:06.874Z,88.20
2018-06-24T10:46:34.934Z,87.80
2018-06-24T10:49:03.350Z,86.50
2018-06-24T10:51:32.463Z,85.90
2018-06-24T10:54:00.646Z,83.20
2018-06-24T10:56:29.436Z,83.90
2018-06-24T10:58:57.545Z,84.80
2018-06-24T11:01:25.628Z,85.30
2018-06-24T11:03:54.273Z,87.60
2018-06-24T11:08:50.381Z,87.10
2018-06-24T11:11:19.606Z,85.00
2018-06-24T11:13:47.850Z,84.40
2018-06-24T11:16:16.604Z,83.50
2018-06-24T11:18:45.635Z,84.30
2018-06-24T11:21:14.384Z,84.20
2018-06-24T11:23:42.468Z,84.00
2018-06-24T11:26:10.678Z,85.40
2018-06-24T11:28:38.798Z,85.00
2018-06-24T11:31:07.247Z,85.00
2018-06-24T11:33:35.240Z,84.90
2018-06-24T11:36:03.294Z,84.60
2018-06-24T11:38:31.325Z,85.00
2018-06-24T11:43:27.366Z,87.60
2018-06-24T11:45:55.438Z,87.50
2018-06-24T11:48:23.659Z,88.80
2018-06-24T11:50:52.706Z,89.40
2018-06-24T11:53:29.861Z,89.20
2018-06-24T11:56:11.198Z,89.30
2018-06-24T11:58:39.774Z,87.60
2018-06-24T12:01:07.818Z,85.60
2018-06-24T12:03:35.857Z,84.50
2018-06-24T12:06:03.959Z,83.30
2018-06-24T12:08:32.040Z,84.50
2018-06-24T12:11:00.087Z,84.60
2018-06-24T12:13:28.197Z,84.70
2018-06-24T12:15:56.225Z,84.60
2018-06-24T12:20:52.153Z,85.00
2018-06-24T12:23:20.775Z,85.80
2018-06-24T12:25:48.949Z,86.40
2018-06-24T12:28:17.027Z,85.60
2018-06-24T12:30:45.176Z,85.90
2018-06-24T12:33:13.178Z,85.90
2018-06-24T12:38:09.105Z,86.10
2018-06-24T12:40:37.193Z,85.00
2018-06-24T12:48:02.174Z,84.80
2018-06-24T12:50:30.281Z,85.60
2018-06-24T12:52:58.551Z,86.50
2018-06-24T12:55:26.633Z,86.10
2018-06-24T12:57:55.117Z,87.50
2018-06-24T13:00:23.632Z,87.30
2018-06-24T13:02:51.904Z,87.90
2018-06-24T13:05:19.975Z,88.00
2018-06-24T13:07:48.234Z,86.90
2018-06-24T13:10:16.317Z,87.70
2018-06-24T13:12:44.363Z,86.70
2018-06-24T13:15:12.492Z,85.30
2018-06-24T13:17:40.580Z,85.00
2018-06-24T13:20:08.604Z,85.50
2018-06-24T13:22:36.641Z,86.60
2018-06-24T13:27:32.669Z,87.20
2018-06-24T13:30:00.737Z,89.10
2018-06-24T13:32:28.792Z,89.40
2018-06-24T13:34:56.836Z,90.30
2018-06-24T13:37:24.885Z,90.10
2018-06-24T13:39:52.921Z,90.20
2018-06-24T13:42:21.096Z,90.60
2018-06-24T13:44:49.142Z,90.50
2018-06-24T13:47:17.202Z,90.80
2018-06-24T13:49:47.476Z,90.90
2018-06-24T13:52:17.207Z,91.00
2018-06-24T13:54:45.259Z,91.20
2018-06-24T13:57:13.332Z,91.00
2018-06-24T13:59:41.403Z,91.10
2018-06-24T14:02:12.642Z,91.10
2018-06-24T14:04:40.768Z,91.00
2018-06-24T14:07:15.868Z,91.10
2018-06-24T14:09:44.041Z,91.20
2018-06-24T14:12:12.078Z,91.00
2018-06-24T14:14:42.779Z,90.90
2018-06-24T14:17:10.878Z,90.70
2018-06-24T14:19:39.026Z,91.00
2018-06-24T14:22:07.170Z,91.10
2018-06-24T14:24:35.221Z,90.70
2018-06-24T14:29:32.281Z,90.90
2018-06-24T14:32:03.589Z,91.00
2018-06-24T14:34:31.852Z,91.20
2018-06-24T14:37:06.130Z,91.30
2018-06-24T14:39:34.208Z,91.30
2018-06-24T14:44:30.221Z,90.90
2018-06-24T14:46:58.312Z,90.70
2018-06-24T14:49:28.793Z,90.70
2018-06-24T14:51:58.370Z,90.40
2018-06-24T14:54:29.032Z,90.30
2018-06-24T14:56:57.634Z,90.30
2018-06-24T14:59:26.528Z,90.30
2018-06-24T15:01:55.574Z,89.40
2018-06-24T15:04:24.011Z,89.10
2018-06-24T15:06:53.707Z,89.20
2018-06-24T15:09:25.789Z,88.40
2018-06-24T15:12:00.664Z,88.10
2018-06-24T15:14:29.922Z,87.70
2018-06-24T15:16:59.644Z,87.40
2018-06-24T15:19:27.861Z,87.90
2018-06-24T15:21:56.517Z,88.40
2018-06-24T15:24:26.006Z,87.50
2018-06-24T15:26:54.999Z,87.70
2018-06-24T15:32:14.268Z,87.10
2018-06-24T15:34:42.383Z,87.90
2018-06-24T15:37:10.832Z,88.00
2018-06-24T15:39:39.267Z,87.50
2018-06-24T15:42:07.418Z,87.80
2018-06-24T15:44:35.517Z,87.00
2018-06-24T15:47:04.309Z,87.30
2018-06-24T15:49:32.853Z,85.30
2018-06-24T15:52:00.903Z,85.10
2018-06-24T15:54:28.968Z,84.80
2018-06-24T15:56:57.092Z,84.90
2018-06-24T15:59:25.181Z,84.90
2018-06-24T16:01:55.473Z,85.30
2018-06-24T16:04:24.149Z,85.10
2018-06-24T16:06:52.371Z,85.60
2018-06-24T16:11:49.622Z,84.80
2018-06-24T16:14:17.826Z,85.20
2018-06-24T16:19:14.045Z,84.80
2018-06-24T16:21:42.223Z,84.60
2018-06-24T16:24:18.535Z,84.40
2018-06-24T16:26:46.896Z,85.30
2018-06-24T16:29:22.371Z,85.70
2018-06-24T16:31:50.759Z,85.00
2018-06-24T16:34:19.521Z,84.90
2018-06-24T16:36:48.554Z,85.60
2018-06-24T16:39:16.782Z,84.60
2018-06-24T16:41:44.886Z,84.30
2018-06-24T16:44:14.022Z,83.60
2018-06-24T16:46:42.174Z,84.10
2018-06-24T16:49:10.856Z,84.00
2018-06-24T16:51:38.920Z,83.10
2018-06-24T16:54:06.951Z,83.70
2018-06-24T16:56:35.067Z,83.90
2018-06-24T16:59:08.073Z,84.20
2018-06-24T17:01:36.518Z,83.80
2018-06-24T17:04:04.833Z,83.90
2018-06-24T17:06:32.905Z,84.40
2018-06-24T17:09:00.974Z,84.70
2018-06-24T17:11:29.009Z,85.00
2018-06-24T17:13:58.093Z,85.30
2018-06-24T17:16:27.477Z,85.40
2018-06-24T17:18:55.524Z,85.30
2018-06-24T17:21:25.959Z,85.70
2018-06-24T17:23:59.237Z,85.60
2018-06-24T17:26:27.350Z,85.40
2018-06-24T17:28:55.599Z,86.20
2018-06-24T17:31:25.797Z,85.20
2018-06-24T17:33:55.545Z,85.20
2018-06-24T17:36:24.851Z,85.10
2018-06-24T17:38:55.605Z,84.70
2018-06-24T17:41:24.197Z,84.60
2018-06-24T17:43:52.421Z,84.90
2018-06-24T17:46:21.431Z,85.60
2018-06-24T17:48:53.777Z,84.90
2018-06-24T17:53:51.022Z,85.30
2018-06-24T17:56:21.989Z,85.90
2018-06-24T17:58:52.789Z,86.00
2018-06-24T18:01:21.205Z,86.40
2018-06-24T18:03:49.281Z,86.30
2018-06-24T18:06:17.914Z,86.60
2018-06-24T18:08:45.961Z,87.10
2018-06-24T18:11:14.050Z,87.10
2018-06-24T18:13:47.449Z,87.30
2018-06-24T18:16:15.505Z,87.40
2018-06-24T18:18:46.296Z,87.40
2018-06-24T18:21:14.388Z,87.40
2018-06-24T18:23:43.490Z,87.80
2018-06-24T18:26:11.688Z,88.00
2018-06-24T18:28:39.899Z,87.70
2018-06-24T18:31:07.998Z,87.90
2018-06-24T18:33:45.598Z,88.00
2018-06-24T18:36:13.648Z,87.80
2018-06-24T18:38:41.932Z,88.30
2018-06-24T18:41:10.484Z,87.70
2018-06-24T18:43:39.266Z,87.80
2018-06-24T18:46:07.365Z,87.80
2018-06-24T18:48:35.440Z,87.70
2018-06-24T18:51:04.030Z,87.70
2018-06-24T18:53:32.177Z,87.30
2018-06-24T18:56:00.252Z,87.20
2018-06-24T18:58:29.773Z,86.40
2018-06-24T19:00:58.450Z,86.00
2018-06-24T19:03:26.598Z,86.10
2018-06-24T19:49:36.429Z,86.10
2018-06-24T19:52:05.336Z,85.50
2018-06-24T19:54:33.417Z,85.60
2018-06-24T19:57:01.505Z,85.40
2018-06-24T19:59:29.573Z,86.00
2018-06-24T20:01:57.652Z,85.60
2018-06-24T20:04:25.725Z,85.60
2018-06-24T20:06:53.824Z,85.90
2018-06-24T20:09:21.949Z,86.40
2018-06-24T20:11:49.986Z,86.00
2018-06-24T20:14:18.058Z,86.00
2018-06-24T20:16:46.123Z,86.40
2018-06-24T20:21:42.115Z,86.50
2018-06-24T20:24:16.192Z,86.70
2018-06-24T20:26:44.405Z,87.00
2018-06-24T20:29:12.541Z,87.00
2018-06-24T20:31:40.717Z,87.00
2018-06-24T20:34:10.021Z,87.40
2018-06-24T20:36:38.075Z,87.70
2018-06-24T20:39:07.617Z,88.00
2018-06-24T20:41:35.754Z,87.90
2018-06-24T20:44:03.881Z,88.00
2018-06-24T20:46:32.089Z,88.30
2018-06-24T20:49:00.236Z,88.60
2018-06-24T20:51:28.424Z,88.80
2018-06-24T20:53:56.485Z,89.10
2018-06-24T20:56:25.566Z,89.80
2018-06-24T20:58:53.682Z,90.10
2018-06-24T21:01:21.724Z,90.50
2018-06-24T21:06:17.769Z,91.00
2018-06-24T21:11:13.712Z,91.70
2018-06-24T21:13:41.844Z,92.00
2018-06-24T21:16:09.957Z,92.20
2018-06-24T21:18:38.043Z,92.30
2018-06-24T21:21:06.126Z,92.50
2018-06-24T21:23:34.220Z,92.50
2018-06-24T21:26:02.285Z,92.50
2018-06-24T21:30:58.200Z,92.50
2018-06-24T21:33:26.384Z,92.50
2018-06-24T21:35:54.429Z,92.40
2018-06-24T21:38:22.469Z,92.50
2018-06-24T21:40:50.632Z,92.30
2018-06-24T21:43:18.687Z,92.30
2018-06-24T21:45:46.840Z,92.30
2018-06-24T21:48:14.901Z,92.20
2018-06-24T21:50:44.266Z,92.20
2018-06-24T21:53:13.257Z,92.20
2018-06-24T21:55:41.407Z,92.10
2018-06-24T21:58:09.478Z,92.20
2018-06-24T22:00:37.605Z,92.10
2018-06-24T22:05:33.673Z,92.00
2018-06-24T22:08:01.854Z,92.00
2018-06-24T22:10:29.965Z,92.10
2018-06-24T22:12:58.124Z,92.00
2018-06-24T22:15:26.257Z,91.70
2018-06-24T22:17:54.328Z,91.70
2018-06-24T22:20:22.369Z,91.60
2018-06-24T22:22:50.657Z,91.80
2018-06-24T22:25:18.773Z,91.60
2018-06-24T22:30:21.504Z,91.60
2018-06-24T22:32:49.552Z,91.40
2018-06-24T22:35:17.681Z,91.40
2018-06-24T22:37:45.753Z,91.30
2018-06-24T22:40:13.825Z,91.40
2018-06-24T22:42:42.118Z,91.30
2018-06-24T22:45:16.713Z,91.30
2018-06-24T22:47:44.897Z,91.30
2018-06-24T22:50:12.961Z,91.50
2018-06-24T22:52:41.035Z,91.50
2018-06-24T22:55:09.140Z,91.40
2018-06-24T22:57:37.246Z,91.50
2018-06-24T23:00:14.179Z,91.50
2018-06-24T23:02:42.897Z,91.50
2018-06-24T23:05:11.689Z,91.60
2018-06-24T23:07:41.115Z,91.60
2018-06-24T23:10:09.480Z,91.60
2018-06-24T23:12:37.572Z,91.60
2018-06-24T23:15:06.493Z,91.80
2018-06-24T23:17:34.582Z,91.90
2018-06-24T23:20:02.726Z,91.90
2018-06-24T23:22:30.766Z,92.00
2018-06-24T23:24:58.844Z,91.90
2018-06-24T23:27:26.925Z,92.10
2018-06-24T23:29:54.985Z,92.10
2018-06-24T23:32:23.027Z,92.10
2018-06-24T23:34:51.264Z,92.30
2018-06-24T23:37:19.337Z,92.50
2018-06-24T23:39:47.396Z,92.50
2018-06-24T23:42:15.437Z,92.60
2018-06-24T23:44:43.509Z,92.50
2018-06-24T23:47:11.552Z,92.40
2018-06-24T23:49:39.608Z,92.50
2018-06-24T23:52:07.701Z,92.50
2018-06-24T23:54:35.745Z,92.50
2018-06-24T23:57:03.826Z,92.50
2018-06-24T23:59:31.901Z,92.50
